Time;durP1;ratioP1;P1;durP2;ratioP2;P2;SDS_P1;SDS_P2;PMS_P1;PMS_P2;Temp;Humidity;BMP_temperature;BMP_pressure;BME280_temperature;BME280_humidity;BME280_pressure;Samples;Min_cycle;Max_cycle;Signal;HPM_P1;HPM_P2
2022/01/15 00:00:28;;;;;;;;;83.33;60.67;;;;;5.13;69.24;102383.13;5038638;28;45279;-50
2022/01/15 00:02:54;;;;;;;;;82.33;62.67;;;;;5.14;68.30;102384.84;5022718;28;45837;-54
2022/01/15 00:05:20;;;;;;;;;74.33;57.00;;;;;5.06;68.89;102371.91;5038316;28;45629;-52
2022/01/15 00:07:47;;;;;;;;;83.33;64.33;;;;;5.25;68.80;102402.97;5038463;28;45433;-54
2022/01/15 00:10:13;;;;;;;;;83.00;65.33;;;;;5.27;68.94;102404.56;5038600;28;45410;-52
2022/01/15 00:12:40;;;;;;;;;83.33;64.33;;;;;5.24;68.55;102406.69;5056466;28;45348;-56
2022/01/15 00:15:17;;;;;;;;;84.67;67.00;;;;;5.22;69.45;102397.81;5056192;28;45746;-55
2022/01/15 00:17:49;;;;;;;;;84.67;66.67;;;;;5.22;68.59;102401.38;5056101;28;45414;-51
2022/01/15 00:20:16;;;;;;;;;84.67;64.33;;;;;5.17;69.49;102392.72;5056473;28;45404;-53
2022/01/15 00:22:43;;;;;;;;;84.00;63.00;;;;;5.23;68.94;102399.53;5038592;28;45599;-52
2022/01/15 00:25:09;;;;;;;;;84.67;64.33;;;;;5.18;69.05;102383.56;5021751;28;46581;-51
2022/01/15 00:27:34;;;;;;;;;86.33;64.33;;;;;5.24;69.38;102396.63;5055712;28;45538;-52
2022/01/15 00:30:00;;;;;;;;;90.67;68.00;;;;;5.22;68.93;102397.81;5021795;28;45489;-52
2022/01/15 00:32:25;;;;;;;;;92.33;71.00;;;;;5.21;68.47;102391.47;5056039;28;45527;-54
2022/01/15 00:34:51;;;;;;;;;85.33;68.33;;;;;5.19;69.08;102385.31;5055287;28;46055;-52
2022/01/15 00:37:16;;;;;;;;;79.67;65.33;;;;;5.17;68.63;102392.72;5055655;28;45529;-54
2022/01/15 00:39:41;;;;;;;;;88.00;65.00;;;;;5.18;69.20;102394.47;5056074;28;45449;-50
2022/01/15 00:42:09;;;;;;;;;85.67;63.67;;;;;5.22;68.95;102389.63;5038394;28;45441;-53
2022/01/15 00:44:36;;;;;;;;;85.00;65.00;;;;;5.22;68.86;102382.31;5037365;28;45759;-53
2022/01/15 00:47:02;;;;;;;;;87.67;64.00;;;;;5.21;68.54;102387.88;5038234;28;45344;-51
2022/01/15 00:49:27;;;;;;;;;87.67;67.33;;;;;5.18;68.58;102386.28;5055886;28;45350;-50
2022/01/15 00:51:52;;;;;;;;;87.67;65.67;;;;;4.84;69.03;102321.22;5056078;28;45569;-53
2022/01/15 00:54:18;;;;;;;;;83.00;62.33;;;;;5.04;68.71;102363.03;5055801;28;46025;-54
2022/01/15 00:56:43;;;;;;;;;95.00;70.67;;;;;5.18;69.00;102382.72;5055705;28;45398;-51
2022/01/15 00:59:09;;;;;;;;;87.67;69.67;;;;;5.16;68.82;102377.41;5038039;28;45921;-55
2022/01/15 01:01:34;;;;;;;;;85.67;67.33;;;;;5.16;69.24;102385.56;5055619;28;45327;-51
2022/01/15 01:04:00;;;;;;;;;88.67;66.67;;;;;5.17;69.17;102372.84;5055693;28;45793;-50
2022/01/15 01:06:25;;;;;;;;;88.00;67.00;;;;;5.13;69.33;102362.19;5037762;28;45439;-51
2022/01/15 01:08:51;;;;;;;;;84.00;65.00;;;;;5.08;69.44;102352.72;5055565;28;45414;-51
2022/01/15 01:11:23;;;;;;;;;85.00;67.00;;;;;5.09;69.79;102358.06;5020706;28;45490;-50
2022/01/15 01:24:38;;;;;;;;;85.00;67.33;;;;;5.06;69.97;102331.09;4982050;28;47000;-51
2022/01/15 01:27:11;;;;;;;;;91.33;69.00;;;;;5.10;69.16;102339.84;5037265;28;45361;-52
2022/01/15 01:32:35;;;;;;;;;84.67;64.33;;;;;5.08;69.04;102330.97;5055365;28;45302;-51
2022/01/15 01:34:56;;;;;;;;;91.33;69.00;;;;;4.89;68.86;102299.94;5038821;28;45844;-50
2022/01/15 01:37:29;;;;;;;;;91.00;65.33;;;;;4.97;69.36;102313.72;5055255;28;45266;-51
2022/01/15 01:40:13;;;;;;;;;88.67;67.67;;;;;4.87;70.10;102300.06;5055016;28;45368;-52
2022/01/15 01:42:43;;;;;;;;;83.67;65.00;;;;;5.10;69.85;102335.28;5055163;28;45474;-53
2022/01/15 01:45:13;;;;;;;;;88.67;68.33;;;;;4.84;69.65;102297.63;5005997;28;46536;-54
2022/01/15 01:47:40;;;;;;;;;83.67;62.67;;;;;5.11;70.01;102347.00;5018198;28;45600;-52
2022/01/15 01:50:16;;;;;;;;;80.67;65.00;;;;;5.08;69.24;102348.13;5023772;28;45479;-50
2022/01/15 01:52:42;;;;;;;;;87.00;67.67;;;;;5.00;70.06;102337.06;5041034;28;45532;-50
2022/01/15 01:55:08;;;;;;;;;87.67;68.33;;;;;5.01;70.03;102336.06;5040496;28;45547;-56
2022/01/15 01:57:34;;;;;;;;;98.00;71.67;;;;;4.98;70.36;102326.34;5040521;28;45394;-53
2022/01/15 02:00:00;;;;;;;;;98.33;71.67;;;;;5.00;69.34;102320.75;5040357;28;45675;-53
2022/01/15 02:02:25;;;;;;;;;92.33;71.33;;;;;5.02;69.33;102321.50;5040876;28;45594;-51
2022/01/15 02:04:52;;;;;;;;;92.33;71.67;;;;;4.96;70.00;102316.59;5040245;28;46490;-53
2022/01/15 02:07:17;;;;;;;;;90.67;67.67;;;;;4.94;69.97;102305.84;5023382;28;45481;-55
2022/01/15 02:09:42;;;;;;;;;87.67;69.33;;;;;4.90;69.32;102309.81;5040299;28;45393;-49
2022/01/15 02:12:08;;;;;;;;;89.67;72.00;;;;;4.85;69.61;102293.03;5058473;28;45582;-54
2022/01/15 02:14:34;;;;;;;;;96.33;73.67;;;;;4.92;69.15;102305.13;5039542;28;47381;-54
2022/01/15 02:16:59;;;;;;;;;91.00;69.00;;;;;4.94;69.45;102307.69;5058167;28;45330;-55
2022/01/15 02:19:32;;;;;;;;;91.33;69.00;;;;;4.60;70.25;102248.97;5058015;28;45416;-53
2022/01/15 02:24:42;;;;;;;;;84.33;65.33;;;;;4.91;69.46;102294.34;5057593;28;45320;-56
2022/01/15 02:27:07;;;;;;;;;85.33;66.67;;;;;4.94;68.95;102302.25;5039995;28;45421;-50
2022/01/15 02:29:33;;;;;;;;;84.00;66.33;;;;;4.96;68.70;102309.28;5057499;28;45464;-53
2022/01/15 02:31:58;;;;;;;;;85.67;65.33;;;;;4.92;69.38;102291.50;5058070;28;45322;-55
2022/01/15 02:34:24;;;;;;;;;81.33;63.67;;;;;4.94;69.38;102303.13;5057597;28;46079;-50
2022/01/15 02:36:50;;;;;;;;;83.67;64.00;;;;;4.94;68.86;102284.06;5057798;28;45362;-51
2022/01/15 02:39:15;;;;;;;;;84.67;63.67;;;;;4.92;68.90;102290.63;5057990;28;45365;-52
2022/01/15 02:41:41;;;;;;;;;85.00;66.33;;;;;4.85;68.82;102280.28;5039888;28;45365;-52
2022/01/15 02:44:17;;;;;;;;;85.67;65.33;;;;;4.89;69.02;102299.94;5022924;28;46574;-53
2022/01/15 02:49:15;;;;;;;;;83.67;62.67;;;;;4.61;69.03;102228.94;5055195;28;45553;-49
2022/01/15 02:51:40;;;;;;;;;84.33;64.67;;;;;4.83;69.36;102267.81;5017465;28;45666;-50
2022/01/15 02:54:06;;;;;;;;;86.67;65.33;;;;;4.92;69.05;102283.34;5039239;28;45501;-55
2022/01/15 02:56:35;;;;;;;;;79.67;63.33;;;;;4.90;69.07;102276.31;5039233;28;45411;-53
2022/01/15 02:59:02;;;;;;;;;82.67;63.00;;;;;4.70;68.75;102252.59;5039859;28;45850;-51
2022/01/15 03:01:28;;;;;;;;;75.67;60.00;;;;;4.83;68.99;102265.09;5057735;28;45573;-54
2022/01/15 03:03:54;;;;;;;;;83.67;63.67;;;;;4.88;68.23;102260.13;5039087;28;46730;-55
2022/01/15 03:06:20;;;;;;;;;70.33;53.67;;;;;4.90;68.46;102269.00;5057662;28;45391;-51
2022/01/15 03:08:46;;;;;;;;;79.25;60.50;;;;;4.86;69.03;102254.81;5023145;28;45333;-53
2022/01/15 03:11:12;;;;;;;;;78.33;60.00;;;;;4.89;68.36;102267.28;5039525;28;45691;-56
2022/01/15 03:13:38;;;;;;;;;76.67;59.00;;;;;4.86;68.48;102260.25;5022551;28;46418;-49
2022/01/15 03:16:05;;;;;;;;;68.50;53.50;;;;;4.90;67.92;102263.56;5039256;28;45342;-51
2022/01/15 03:18:30;;;;;;;;;82.00;62.00;;;;;4.85;68.51;102266.69;5057353;28;45399;-52
2022/01/15 03:20:56;;;;;;;;;78.67;62.67;;;;;4.84;68.22;102259.53;5057478;28;45297;-55
2022/01/15 03:23:21;;;;;;;;;73.75;58.75;;;;;4.84;68.17;102262.25;5056790;28;47164;-53
2022/01/15 03:25:47;;;;;;;;;84.75;61.50;;;;;4.84;68.30;102266.81;5038944;28;45424;-53
2022/01/15 03:28:12;;;;;;;;;76.75;59.00;;;;;4.85;68.43;102260.38;5039130;28;45470;-55
2022/01/15 03:30:38;;;;;;;;;78.25;60.25;;;;;4.77;68.16;102249.31;5057286;28;45469;-50
2022/01/15 03:33:03;;;;;;;;;78.00;61.00;;;;;4.77;67.75;102247.47;5056820;28;45436;-53
2022/01/15 03:35:29;;;;;;;;;74.75;57.75;;;;;4.71;68.39;102229.81;5056859;28;45450;-50
2022/01/15 03:37:54;;;;;;;;;77.25;59.75;;;;;4.78;68.10;102238.31;5022800;28;45430;-51
2022/01/15 03:40:20;;;;;;;;;74.25;56.25;;;;;4.75;68.20;102228.56;5057067;28;45356;-54
2022/01/15 03:42:46;;;;;;;;;73.00;54.50;;;;;4.79;67.86;102237.31;5038788;28;45967;-50
2022/01/15 03:45:12;;;;;;;;;66.00;54.25;;;;;4.79;68.11;102231.03;5038250;28;45408;-53
2022/01/15 03:47:38;;;;;;;;;74.00;59.50;;;;;4.78;67.95;102232.88;5056961;28;45338;-53
2022/01/15 03:50:04;;;;;;;;;78.50;62.50;;;;;4.66;67.67;102204.03;5038930;28;45307;-50
2022/01/15 03:52:29;;;;;;;;;72.67;57.00;;;;;4.61;67.82;102193.56;5038610;28;47550;-54
2022/01/15 03:54:56;;;;;;;;;78.67;60.67;;;;;4.79;68.18;102225.59;5056600;28;45164;-56
2022/01/15 03:57:22;;;;;;;;;79.67;61.33;;;;;4.72;68.36;102209.81;5039003;28;45343;-55
2022/01/15 03:59:47;;;;;;;;;78.67;60.67;;;;;4.55;68.36;102177.81;5056537;28;45602;-51
2022/01/15 04:02:13;;;;;;;;;73.75;57.00;;;;;4.73;68.49;102210.66;5056044;28;46435;-51
2022/01/15 04:04:38;;;;;;;;;79.33;60.00;;;;;4.71;68.69;102205.34;5038470;28;45441;-56
2022/01/15 04:07:03;;;;;;;;;81.00;59.33;;;;;4.75;68.87;102203.19;5056738;28;45408;-50
2022/01/15 04:09:29;;;;;;;;;79.67;60.67;;;;;4.68;67.98;102191.16;5037764;28;45740;-47
2022/01/15 04:11:55;;;;;;;;;77.25;59.75;;;;;4.73;68.80;102203.38;5021928;28;45429;-52
2022/01/15 04:14:20;;;;;;;;;84.33;60.33;;;;;4.78;68.46;102204.78;5056309;28;45323;-52
2022/01/15 04:16:46;;;;;;;;;83.00;59.67;;;;;4.75;68.06;102198.63;5038271;28;45444;-53
2022/01/15 04:19:11;;;;;;;;;77.33;59.33;;;;;4.58;68.49;102166.63;5031332;27;45298;-51
2022/01/15 04:21:37;;;;;;;;;74.00;58.25;;;;;4.78;68.87;102204.78;5050451;28;45384;-52
2022/01/15 04:24:03;;;;;;;;;79.33;61.33;;;;;4.76;68.89;102196.78;5055750;28;45465;-52
2022/01/15 04:26:28;;;;;;;;;72.33;57.00;;;;;4.59;68.06;102169.22;5038320;28;45322;-51
2022/01/15 04:28:54;;;;;;;;;79.67;60.00;;;;;4.73;68.85;102187.03;5056595;28;45340;-51
2022/01/15 04:31:20;;;;;;;;;83.67;62.33;;;;;4.61;68.00;102167.22;5055905;28;46130;-55
2022/01/15 04:33:46;;;;;;;;;81.33;61.67;;;;;4.67;68.25;102182.16;5004871;28;45423;-52
2022/01/15 04:36:11;;;;;;;;;76.33;60.67;;;;;4.49;68.08;102146.59;5021307;28;45434;-54
2022/01/15 04:38:38;;;;;;;;;82.00;64.00;;;;;4.65;67.97;102176.00;5038401;28;45490;-51
2022/01/15 04:41:07;;;;;;;;;76.67;59.00;;;;;4.69;68.37;102180.16;5021465;28;46544;-55
2022/01/15 04:43:32;;;;;;;;;85.33;62.00;;;;;4.67;68.12;102173.13;5037737;28;45258;-49
2022/01/15 04:45:58;;;;;;;;;82.33;64.33;;;;;4.52;68.15;102142.72;5021149;28;45379;-53
2022/01/15 04:48:23;;;;;;;;;88.67;66.33;;;;;4.51;68.94;102150.03;5037926;28;45379;-49
2022/01/15 04:50:49;;;;;;;;;87.67;68.00;;;;;4.70;68.44;102181.84;5037385;28;46323;-52
2022/01/15 04:53:14;;;;;;;;;84.67;64.67;;;;;4.66;68.71;102174.13;5055757;28;45643;-51
2022/01/15 04:55:40;;;;;;;;;82.67;65.33;;;;;4.65;68.84;102170.56;5037816;28;45326;-52
2022/01/15 04:58:06;;;;;;;;;86.00;66.67;;;;;4.65;68.99;102167.84;5038227;28;45458;-54
2022/01/15 05:00:31;;;;;;;;;91.33;70.00;;;;;4.47;68.87;102138.56;5055208;28;45422;-54
2022/01/15 05:02:57;;;;;;;;;93.67;70.33;;;;;4.69;68.31;102179.31;5055184;28;45361;-51
2022/01/15 05:05:25;;;;;;;;;91.00;69.33;;;;;4.65;69.11;102173.28;5037389;28;45409;-53
2022/01/15 05:07:54;;;;;;;;;90.67;67.67;;;;;4.58;69.01;102169.34;5037897;28;45318;-52
2022/01/15 05:10:21;;;;;;;;;93.67;67.33;;;;;4.54;68.74;102168.78;5055385;28;46268;-54
2022/01/15 05:12:48;;;;;;;;;89.00;68.00;;;;;4.60;69.01;102175.53;5055130;28;45394;-56
2022/01/15 05:15:15;;;;;;;;;87.33;68.00;;;;;4.61;68.78;102171.81;5055660;28;45390;-52
2022/01/15 05:17:41;;;;;;;;;91.00;71.33;;;;;4.39;68.91;102140.25;5037401;28;45362;-55
2022/01/15 05:20:07;;;;;;;;;95.00;70.33;;;;;4.53;68.51;102169.78;5037060;28;46767;-52
2022/01/15 05:22:34;;;;;;;;;88.33;68.00;;;;;4.49;69.26;102157.47;5037172;28;45455;-53
2022/01/15 05:24:59;;;;;;;;;89.33;70.00;;;;;4.42;68.89;102150.81;5033830;28;45687;-54
2022/01/15 05:27:24;;;;;;;;;92.67;70.67;;;;;4.47;69.18;102163.03;5035737;28;45323;-53
2022/01/15 05:29:50;;;;;;;;;90.33;71.00;;;;;4.47;68.66;102160.31;5035240;28;46136;-53
2022/01/15 05:32:18;;;;;;;;;94.33;70.67;;;;;4.29;69.30;102129.31;5034231;28;45425;-56
2022/01/15 05:34:45;;;;;;;;;86.33;67.67;;;;;4.41;69.23;102152.72;5035686;28;45364;-55
2022/01/15 05:37:11;;;;;;;;;85.33;63.67;;;;;4.47;68.61;102156.72;5035681;28;45430;-51
2022/01/15 05:39:36;;;;;;;;;87.00;67.67;;;;;4.29;68.79;102124.75;5035253;28;46617;-55
2022/01/15 05:42:02;;;;;;;;;89.33;65.33;;;;;4.44;68.52;102157.00;5035143;28;45384;-52
2022/01/15 05:44:27;;;;;;;;;88.33;66.33;;;;;4.44;68.66;102166.00;5035198;28;45503;-53
2022/01/15 05:46:53;;;;;;;;;91.00;66.33;;;;;4.25;69.52;102131.47;5034100;28;45454;-53
2022/01/15 05:49:18;;;;;;;;;85.33;66.33;;;;;4.45;69.16;102156.88;5034212;28;45795;-53
2022/01/15 05:51:44;;;;;;;;;81.00;62.00;;;;;4.27;68.59;102131.31;5035266;28;45314;-52
2022/01/15 05:54:10;;;;;;;;;78.00;61.50;;;;;4.49;69.23;102171.06;5033874;28;45783;-53
2022/01/15 05:56:36;;;;;;;;;77.50;61.75;;;;;4.50;69.03;102169.19;5035253;28;45515;-52
2022/01/15 05:59:02;;;;;;;;;81.67;61.33;;;;;4.50;68.45;102169.19;5033834;28;45475;-53
2022/01/15 06:01:28;;;;;;;;;83.00;64.33;;;;;4.47;69.24;102178.47;5005286;28;46306;-54
2022/01/15 06:03:53;;;;;;;;;76.25;61.00;;;;;4.47;68.68;102179.34;5034380;28;45301;-50
2022/01/15 06:06:19;;;;;;;;;87.33;67.00;;;;;4.46;69.01;102176.75;5034977;28;45520;-54
2022/01/15 06:08:44;;;;;;;;;78.75;61.00;;;;;4.46;68.65;102180.34;5034818;28;45765;-54
2022/01/15 06:11:11;;;;;;;;;79.25;61.25;;;;;4.44;68.65;102176.03;5034759;28;45246;-53
2022/01/15 06:13:37;;;;;;;;;81.00;65.00;;;;;4.37;68.77;102156.69;5017481;28;45333;-51
2022/01/15 06:16:04;;;;;;;;;85.67;62.67;;;;;4.46;68.75;102179.47;5035004;28;45869;-50
2022/01/15 06:18:29;;;;;;;;;78.33;62.00;;;;;4.44;68.92;102170.59;5034557;28;46861;-50
2022/01/15 06:20:55;;;;;;;;;77.67;62.67;;;;;4.28;69.13;102141.19;5034600;28;45275;-56
2022/01/15 06:23:20;;;;;;;;;79.33;63.33;;;;;4.46;68.60;102169.47;5035465;28;45446;-52
2022/01/15 06:25:46;;;;;;;;;80.25;62.25;;;;;4.45;69.09;102162.31;5036997;28;45624;-54
2022/01/15 06:28:11;;;;;;;;;79.67;61.67;;;;;4.44;69.44;102165.16;5054518;28;46144;-55
2022/01/15 06:30:36;;;;;;;;;76.00;61.00;;;;;4.44;69.13;102157.84;5036918;28;45346;-52
2022/01/15 06:33:02;;;;;;;;;83.33;63.33;;;;;4.46;68.67;102168.59;5057843;28;45370;-54
2022/01/15 06:35:28;;;;;;;;;83.33;66.00;;;;;4.44;69.05;102166.00;5058255;28;45903;-50
2022/01/15 06:37:54;;;;;;;;;75.67;58.00;;;;;4.13;69.17;102119.81;5023622;28;47093;-55
2022/01/15 06:40:20;;;;;;;;;81.33;60.67;;;;;4.34;69.41;102152.38;5039997;28;45429;-55
2022/01/15 06:42:45;;;;;;;;;72.00;54.67;;;;;4.34;69.46;102154.25;5039893;28;45430;-55
2022/01/15 06:45:11;;;;;;;;;79.00;62.00;;;;;4.33;69.53;102157.97;5058099;28;45591;-55
2022/01/15 06:47:37;;;;;;;;;86.00;64.33;;;;;4.33;68.80;102158.81;5040057;28;45645;-56
2022/01/15 06:50:06;;;;;;;;;83.50;64.50;;;;;4.31;69.08;102162.66;5039930;28;45403;-52
2022/01/15 06:52:32;;;;;;;;;83.75;61.00;;;;;4.17;69.14;102139.44;5057920;28;45742;-51
2022/01/15 06:54:58;;;;;;;;;80.75;63.50;;;;;4.14;68.93;102124.25;5040194;28;45607;-52
2022/01/15 06:57:23;;;;;;;;;83.00;63.50;;;;;4.33;68.95;102142.50;5057807;28;46252;-55
2022/01/15 06:59:49;;;;;;;;;77.25;62.50;;;;;4.15;68.88;102115.09;5057894;28;45305;-52
2022/01/15 07:02:14;;;;;;;;;85.75;63.25;;;;;4.17;69.64;102114.97;5027884;28;46005;-55
2022/01/15 07:04:40;;;;;;;;;78.00;60.75;;;;;4.31;68.97;102132.75;5037618;28;45527;-52
2022/01/15 07:07:05;;;;;;;;;82.00;64.00;;;;;4.34;68.86;102136.06;5052325;28;45930;-52
2022/01/15 07:09:31;;;;;;;;;73.75;56.75;;;;;4.31;69.34;102132.75;5039647;28;45769;-55
2022/01/15 07:11:56;;;;;;;;;84.00;64.75;;;;;4.32;69.37;102135.34;5057749;28;45283;-52
2022/01/15 07:14:22;;;;;;;;;87.25;67.50;;;;;4.04;68.70;102091.59;5058026;28;45619;-52
2022/01/15 07:16:47;;;;;;;;;87.33;66.00;;;;;4.17;69.30;102126.69;5057305;28;46228;-52
2022/01/15 07:19:13;;;;;;;;;79.25;62.00;;;;;4.17;68.71;102121.25;5039568;28;45370;-54
2022/01/15 07:21:38;;;;;;;;;82.50;64.75;;;;;4.12;69.25;102128.97;5057230;28;45315;-51
2022/01/15 07:24:04;;;;;;;;;83.33;62.67;;;;;4.13;69.42;102127.97;5057276;28;45276;-51
2022/01/15 07:26:30;;;;;;;;;84.25;65.25;;;;;4.09;69.04;102123.78;5056703;28;46435;-51
2022/01/15 07:28:57;;;;;;;;;87.25;66.00;;;;;3.99;69.16;102107.44;5039187;28;45330;-54
2022/01/15 07:31:23;;;;;;;;;92.00;67.33;;;;;4.11;69.55;102121.78;5039364;28;45472;-51
2022/01/15 07:33:48;;;;;;;;;91.67;71.33;;;;;4.14;69.24;102137.84;5057102;28;45655;-52
2022/01/15 07:36:14;;;;;;;;;81.67;62.00;;;;;4.15;69.73;102127.81;5056701;28;46433;-51
2022/01/15 07:38:39;;;;;;;;;78.67;64.00;;;;;4.21;69.62;102132.72;5022448;28;45434;-54
2022/01/15 07:41:06;;;;;;;;;86.67;67.67;;;;;4.12;69.01;102104.50;5056763;28;45412;-53
2022/01/15 07:43:31;;;;;;;;;83.00;64.00;;;;;4.17;69.49;102123.97;5039234;28;45406;-55
2022/01/15 07:45:57;;;;;;;;;86.33;66.33;;;;;4.17;68.86;102121.25;5038439;28;45585;-56
2022/01/15 07:48:22;;;;;;;;;81.00;66.00;;;;;4.07;69.44;102104.91;5056803;28;45309;-52
2022/01/15 07:50:48;;;;;;;;;85.75;62.50;;;;;4.12;70.11;102118.09;5056664;28;45199;-50
2022/01/15 07:53:14;;;;;;;;;85.50;65.25;;;;;4.15;69.92;102123.25;5039061;28;45275;-53
2022/01/15 07:55:39;;;;;;;;;84.67;65.33;;;;;4.17;69.17;102123.97;5056685;28;46392;-54
2022/01/15 07:58:05;;;;;;;;;85.00;65.00;;;;;4.05;69.51;102100.59;5038521;28;45394;-53
2022/01/15 08:00:30;;;;;;;;;87.67;65.67;;;;;4.03;68.83;102095.31;5022145;28;45397;-50
2022/01/15 08:02:57;;;;;;;;;85.67;66.67;;;;;4.24;69.21;102127.03;5038834;28;45426;-53
2022/01/15 08:05:22;;;;;;;;;89.00;70.00;;;;;4.29;69.06;102129.31;5056342;28;45675;-54
2022/01/15 08:07:48;;;;;;;;;94.33;70.00;;;;;4.26;69.04;102126.91;5037797;28;45397;-53
2022/01/15 08:10:13;;;;;;;;;99.67;76.67;;;;;4.22;69.54;102120.00;5056904;28;45445;-54
2022/01/15 08:12:47;;;;;;;;;95.33;75.00;;;;;4.02;69.56;102081.84;5056764;28;45353;-53
2022/01/15 08:15:13;;;;;;;;;98.67;78.67;;;;;4.10;69.38;102097.50;5038406;28;46674;-52
2022/01/15 08:17:39;;;;;;;;;102.00;76.67;;;;;4.22;69.24;102109.13;5056139;28;45401;-51
2022/01/15 08:20:05;;;;;;;;;101.33;76.67;;;;;4.21;69.29;102110.97;5056258;28;45467;-51
2022/01/15 08:22:30;;;;;;;;;93.00;72.00;;;;;4.20;69.13;102115.56;5038020;28;45335;-49
2022/01/15 08:24:55;;;;;;;;;98.00;74.67;;;;;4.23;69.24;102117.16;5037844;28;46356;-54
2022/01/15 08:27:21;;;;;;;;;96.67;74.67;;;;;4.26;68.87;102113.31;5056364;28;45390;-51
2022/01/15 08:29:46;;;;;;;;;100.67;80.00;;;;;4.30;69.18;102117.44;5056245;28;45455;-51
2022/01/15 08:32:12;;;;;;;;;100.00;83.00;;;;;4.33;69.12;102117.19;5056286;28;45498;-54
2022/01/15 08:34:38;;;;;;;;;102.00;76.33;;;;;4.31;69.68;102111.00;5038340;28;45978;-50
2022/01/15 08:37:04;;;;;;;;;103.33;83.00;;;;;4.27;69.40;102109.59;5055840;28;45370;-51
2022/01/15 08:39:30;;;;;;;;;94.00;71.33;;;;;4.27;69.08;102117.75;5056176;28;45213;-49
2022/01/15 08:41:56;;;;;;;;;95.33;72.33;;;;;4.17;69.15;102083.19;5056284;28;45422;-54
2022/01/15 08:44:24;;;;;;;;;98.67;74.67;;;;;4.35;69.41;102115.19;5055788;28;46157;-52
2022/01/15 08:46:51;;;;;;;;;96.33;73.00;;;;;4.20;68.46;102085.66;5055725;28;45316;-50
2022/01/15 08:49:16;;;;;;;;;92.67;72.67;;;;;4.37;68.99;102117.78;5022002;28;45344;-50
2022/01/15 08:51:42;;;;;;;;;96.67;75.67;;;;;4.39;68.54;102122.09;5038290;28;45497;-52
2022/01/15 08:54:07;;;;;;;;;94.33;73.33;;;;;4.44;68.83;102125.22;5007706;28;47315;-51
2022/01/15 08:56:33;;;;;;;;;92.67;70.00;;;;;4.42;68.96;102113.63;5056430;28;45740;-51
2022/01/15 08:58:58;;;;;;;;;100.67;75.67;;;;;4.45;68.71;102124.25;5056247;28;45345;-52
2022/01/15 09:01:24;;;;;;;;;90.00;70.67;;;;;4.46;68.28;102131.41;5038129;28;45501;-50
2022/01/15 09:03:50;;;;;;;;;90.33;70.67;;;;;4.45;69.00;102134.25;5055721;28;46046;-52
2022/01/15 09:06:15;;;;;;;;;93.67;72.33;;;;;4.41;68.28;102133.66;5020951;28;45597;-54
2022/01/15 09:08:42;;;;;;;;;100.33;74.33;;;;;4.37;69.46;102123.22;5037543;28;45358;-51
2022/01/15 09:11:08;;;;;;;;;92.67;71.67;;;;;4.48;68.83;102132.13;5056065;28;45446;-51
2022/01/15 09:13:33;;;;;;;;;101.00;74.67;;;;;4.47;68.71;102126.81;5055254;28;45947;-53
2022/01/15 09:15:59;;;;;;;;;95.00;73.33;;;;;4.55;68.89;102137.00;5055732;28;45473;-51
2022/01/15 09:18:24;;;;;;;;;96.33;73.00;;;;;4.56;68.66;102125.13;5055445;28;45441;-55
2022/01/15 09:20:50;;;;;;;;;97.67;71.67;;;;;4.42;68.37;102101.88;5055967;28;45599;-51
2022/01/15 09:23:16;;;;;;;;;98.67;72.00;;;;;4.59;68.87;102124.88;5054840;28;45935;-55
2022/01/15 09:25:42;;;;;;;;;91.67;69.67;;;;;4.64;68.43;102128.00;5013146;28;47338;-57
2022/01/15 09:30:52;;;;;;;;;91.33;70.00;;;;;4.69;69.03;102120.31;5036270;28;45423;-51
2022/01/15 09:33:17;;;;;;;;;87.33;67.00;;;;;4.53;68.72;102093.63;5016123;28;46875;-54
2022/01/15 09:35:43;;;;;;;;;91.33;70.33;;;;;4.71;68.32;102129.19;5016388;28;45767;-58
2022/01/15 09:38:08;;;;;;;;;88.00;65.67;;;;;4.77;68.34;102135.06;5050634;28;45474;-57
2022/01/15 09:40:34;;;;;;;;;94.67;73.33;;;;;4.42;69.11;102074.69;5031421;28;45696;-60
2022/01/15 09:43:00;;;;;;;;;93.67;72.67;;;;;4.68;68.23;102107.72;5032781;28;45456;-57
2022/01/15 09:45:26;;;;;;;;;85.67;66.67;;;;;4.88;68.63;102133.13;5032210;28;45363;-58
2022/01/15 09:47:59;;;;;;;;;84.67;65.67;;;;;4.94;68.30;102136.25;5051241;28;45538;-60
2022/01/15 09:50:25;;;;;;;;;83.67;65.67;;;;;4.93;68.72;102127.25;5033057;28;45451;-56
2022/01/15 09:52:52;;;;;;;;;85.33;66.33;;;;;4.67;67.86;102081.50;5021316;28;46996;-57
2022/01/15 09:55:17;;;;;;;;;88.00;65.67;;;;;4.96;68.37;102113.34;4999483;28;45870;-54
2022/01/15 09:57:43;;;;;;;;;85.33;67.67;;;;;5.01;67.96;102113.78;5000234;28;45511;-55
2022/01/15 10:00:11;;;;;;;;;87.00;65.67;;;;;5.07;67.70;102125.97;5034971;28;45397;-57
2022/01/15 10:02:38;;;;;;;;;85.67;67.33;;;;;5.11;67.67;102126.53;5016588;28;46561;-55
2022/01/15 10:05:04;;;;;;;;;83.33;65.33;;;;;5.12;68.36;102117.38;5000488;28;45408;-56
2022/01/15 10:07:30;;;;;;;;;86.67;66.00;;;;;5.17;68.11;102115.06;5018494;28;45431;-55
2022/01/15 10:09:55;;;;;;;;;95.33;74.00;;;;;5.21;67.83;102116.53;5038722;28;45340;-56
2022/01/15 10:12:26;;;;;;;;;96.33;74.67;;;;;4.63;67.82;102025.66;5038368;28;45880;-53
2022/01/15 10:14:54;;;;;;;;;98.67;78.67;;;;;5.27;67.82;102129.56;5037904;28;45393;-53
2022/01/15 10:17:19;;;;;;;;;95.00;72.00;;;;;5.30;67.93;102128.44;5020790;28;45364;-55
2022/01/15 10:19:45;;;;;;;;;96.67;80.00;;;;;5.32;67.92;102126.41;5022600;28;45388;-56
2022/01/15 10:22:31;;;;;;;;;99.33;75.00;;;;;5.36;67.36;102125.13;5037802;28;45584;-52
2022/01/15 10:25:01;;;;;;;;;95.00;74.67;;;;;5.24;68.26;102093.59;5022083;28;46899;-54
2022/01/15 10:27:34;;;;;;;;;97.33;77.67;;;;;5.38;67.33;102114.94;5014903;28;45426;-54
2022/01/15 10:30:00;;;;;;;;;105.67;85.67;;;;;5.25;67.76;102081.72;5017642;28;45529;-51
2022/01/15 10:32:28;;;;;;;;;98.33;81.67;;;;;5.42;67.65;102102.78;5057762;28;46534;-55
2022/01/15 10:34:53;;;;;;;;;102.67;86.00;;;;;5.52;67.31;102099.16;5039274;28;46550;-52
2022/01/15 10:37:25;;;;;;;;;100.67;86.67;;;;;5.36;67.71;102059.78;5057586;28;45334;-54
2022/01/15 10:40:00;;;;;;;;;102.67;88.67;;;;;5.61;67.12;102090.13;5037259;28;45488;-55
2022/01/15 10:42:25;;;;;;;;;104.33;88.33;;;;;5.64;66.83;102086.25;5057732;28;45341;-54
2022/01/15 10:44:52;;;;;;;;;103.67;88.33;;;;;5.67;66.23;102091.41;5022058;28;45442;-57
2022/01/15 10:47:19;;;;;;;;;109.33;93.00;;;;;5.53;66.58;102069.06;5040243;28;45440;-57
2022/01/15 10:49:45;;;;;;;;;107.33;93.00;;;;;5.52;66.96;102056.47;5040291;28;45390;-53
2022/01/15 10:52:21;;;;;;;;;108.00;91.67;;;;;5.76;66.77;102078.78;5039318;28;45678;-51
2022/01/15 10:55:05;;;;;;;;;113.00;94.67;;;;;5.77;66.98;102070.44;5039738;28;45350;-51
2022/01/15 10:57:38;;;;;;;;;103.33;87.00;;;;;5.84;66.57;102078.91;5040096;28;45208;-53
2022/01/15 11:00:15;;;;;;;;;102.67;90.33;;;;;5.91;66.47;102084.59;5039611;28;45379;-54
2022/01/15 11:02:49;;;;;;;;;106.67;96.33;;;;;5.94;65.52;102079.72;5057875;28;46516;-52
2022/01/15 11:05:21;;;;;;;;;112.00;100.67;;;;;5.84;65.52;102054.38;5057402;28;45568;-56
2022/01/15 11:07:47;;;;;;;;;113.33;101.00;;;;;6.02;65.79;102076.28;5057902;28;45379;-57
2022/01/15 11:10:12;;;;;;;;;108.00;96.33;;;;;6.03;65.11;102069.81;5057397;28;45418;-52
2022/01/15 11:12:38;;;;;;;;;97.67;82.33;;;;;6.09;65.96;102074.69;5057534;28;46013;-54
2022/01/15 11:15:05;;;;;;;;;123.33;106.00;;;;;6.13;65.73;102071.66;5039479;28;45936;-56
2022/01/15 11:17:31;;;;;;;;;123.00;107.00;;;;;6.18;65.47;102074.78;5039198;28;45296;-55
2022/01/15 11:19:56;;;;;;;;;128.67;110.67;;;;;6.21;65.22;102077.22;5039682;28;45516;-56
2022/01/15 11:22:22;;;;;;;;;120.00;109.00;;;;;6.25;65.85;102065.00;5022322;28;46643;-54
2022/01/15 11:24:49;;;;;;;;;135.33;108.67;;;;;6.28;65.17;102058.38;5056807;28;45791;-57
2022/01/15 11:27:14;;;;;;;;;124.67;111.67;;;;;6.34;65.04;102058.66;5057199;28;45325;-54
2022/01/15 11:29:41;;;;;;;;;121.00;106.33;;;;;6.39;65.28;102060.91;5039618;28;45314;-53
2022/01/15 11:32:07;;;;;;;;;122.75;108.25;;;;;6.36;65.00;102042.13;5038945;28;46598;-55
2022/01/15 11:34:34;;;;;;;;;123.67;111.67;;;;;6.35;65.25;102018.59;5022099;28;45344;-54